sensor_id;sensor_type;location;lat;lon;timestamp;temperature;humidity
55642;DHT22;41509;53.108;6.100;2023-01-13T00:00:10;8.80;99.90
55642;DHT22;41509;53.108;6.100;2023-01-13T00:02:35;8.70;99.90
55642;DHT22;41509;53.108;6.100;2023-01-13T00:05:02;8.70;99.90
55642;DHT22;41509;53.108;6.100;2023-01-13T00:07:27;8.70;99.90
55642;DHT22;41509;53.108;6.100;2023-01-13T00:09:53;8.70;99.90
55642;DHT22;41509;53.108;6.100;2023-01-13T00:12:19;8.60;99.90
55642;DHT22;41509;53.108;6.100;2023-01-13T00:14:44;8.60;99.90
55642;DHT22;41509;53.108;6.100;2023-01-13T00:17:10;8.60;99.90
55642;DHT22;41509;53.108;6.100;2023-01-13T00:19:36;8.60;99.90
55642;DHT22;41509;53.108;6.100;2023-01-13T00:22:01;8.50;99.90
55642;DHT22;41509;53.108;6.100;2023-01-13T00:24:27;8.50;99.90
55642;DHT22;41509;53.108;6.100;2023-01-13T00:26:53;8.50;99.90
55642;DHT22;41509;53.108;6.100;2023-01-13T00:29:18;8.50;99.90
55642;DHT22;41509;53.108;6.100;2023-01-13T00:31:44;8.40;99.90
55642;DHT22;41509;53.108;6.100;2023-01-13T00:34:10;8.40;99.90
55642;DHT22;41509;53.108;6.100;2023-01-13T00:36:35;8.50;99.90
55642;DHT22;41509;53.108;6.100;2023-01-13T00:39:01;8.50;99.90
55642;DHT22;41509;53.108;6.100;2023-01-13T00:41:27;8.40;99.90
55642;DHT22;41509;53.108;6.100;2023-01-13T00:44:13;8.40;99.90
55642;DHT22;41509;53.108;6.100;2023-01-13T00:46:38;8.40;99.90
55642;DHT22;41509;53.108;6.100;2023-01-13T00:49:04;8.40;99.90
55642;DHT22;41509;53.108;6.100;2023-01-13T00:51:29;8.30;99.90
55642;DHT22;41509;53.108;6.100;2023-01-13T00:53:57;8.30;99.90
55642;DHT22;41509;53.108;6.100;2023-01-13T00:56:23;8.30;99.90
55642;DHT22;41509;53.108;6.100;2023-01-13T00:58:49;8.30;99.90
55642;DHT22;41509;53.108;6.100;2023-01-13T01:01:19;8.30;99.90
55642;DHT22;41509;53.108;6.100;2023-01-13T01:03:49;8.20;99.90
55642;DHT22;41509;53.108;6.100;2023-01-13T01:06:18;8.20;99.90
55642;DHT22;41509;53.108;6.100;2023-01-13T01:08:44;8.20;99.90
55642;DHT22;41509;53.108;6.100;2023-01-13T01:11:12;8.30;99.90
55642;DHT22;41509;53.108;6.100;2023-01-13T01:13:38;8.20;99.90
55642;DHT22;41509;53.108;6.100;2023-01-13T01:16:06;8.20;99.90
55642;DHT22;41509;53.108;6.100;2023-01-13T01:18:36;8.20;99.90
55642;DHT22;41509;53.108;6.100;2023-01-13T01:21:03;8.20;99.90
55642;DHT22;41509;53.108;6.100;2023-01-13T01:23:30;8.20;99.90
55642;DHT22;41509;53.108;6.100;2023-01-13T01:25:59;8.20;99.90
55642;DHT22;41509;53.108;6.100;2023-01-13T01:28:25;8.10;99.90
55642;DHT22;41509;53.108;6.100;2023-01-13T01:30:51;8.10;99.90
55642;DHT22;41509;53.108;6.100;2023-01-13T01:33:18;8.10;99.90
55642;DHT22;41509;53.108;6.100;2023-01-13T01:35:44;8.10;99.90
55642;DHT22;41509;53.108;6.100;2023-01-13T01:38:10;8.10;99.90
55642;DHT22;41509;53.108;6.100;2023-01-13T01:40:35;8.10;99.90
55642;DHT22;41509;53.108;6.100;2023-01-13T01:43:01;8.10;99.90
55642;DHT22;41509;53.108;6.100;2023-01-13T01:45:45;8.20;99.90
55642;DHT22;41509;53.108;6.100;2023-01-13T01:48:11;8.20;99.90
55642;DHT22;41509;53.108;6.100;2023-01-13T01:50:37;8.10;99.90
55642;DHT22;41509;53.108;6.100;2023-01-13T01:53:11;8.10;99.90
55642;DHT22;41509;53.108;6.100;2023-01-13T01:55:38;8.10;99.90
55642;DHT22;41509;53.108;6.100;2023-01-13T01:58:28;8.10;99.90
55642;DHT22;41509;53.108;6.100;2023-01-13T02:00:55;8.00;99.90
55642;DHT22;41509;53.108;6.100;2023-01-13T02:03:21;8.10;99.90
55642;DHT22;41509;53.108;6.100;2023-01-13T02:05:47;8.10;99.90
55642;DHT22;41509;53.108;6.100;2023-01-13T02:08:13;8.10;99.90
55642;DHT22;41509;53.108;6.100;2023-01-13T02:10:40;8.10;99.90
55642;DHT22;41509;53.108;6.100;2023-01-13T02:13:10;8.10;99.90
55642;DHT22;41509;53.108;6.100;2023-01-13T02:15:47;8.10;99.90
55642;DHT22;41509;53.108;6.100;2023-01-13T02:18:49;8.20;99.90
55642;DHT22;41509;53.108;6.100;2023-01-13T02:24:20;8.20;99.90
55642;DHT22;41509;53.108;6.100;2023-01-13T02:30:00;8.20;99.90
55642;DHT22;41509;53.108;6.100;2023-01-13T02:33:16;8.20;99.90
55642;DHT22;41509;53.108;6.100;2023-01-13T02:36:13;8.20;99.90
55642;DHT22;41509;53.108;6.100;2023-01-13T02:38:57;8.30;99.90
55642;DHT22;41509;53.108;6.100;2023-01-13T02:44:50;8.40;99.90
55642;DHT22;41509;53.108;6.100;2023-01-13T02:47:21;8.40;99.90
55642;DHT22;41509;53.108;6.100;2023-01-13T02:49:49;8.40;99.90
55642;DHT22;41509;53.108;6.100;2023-01-13T02:52:36;8.50;99.90
55642;DHT22;41509;53.108;6.100;2023-01-13T02:55:12;8.50;99.90
55642;DHT22;41509;53.108;6.100;2023-01-13T02:57:40;8.50;99.90
55642;DHT22;41509;53.108;6.100;2023-01-13T03:00:10;8.50;99.90
55642;DHT22;41509;53.108;6.100;2023-01-13T03:02:37;8.50;99.90
55642;DHT22;41509;53.108;6.100;2023-01-13T03:05:03;8.50;99.90
55642;DHT22;41509;53.108;6.100;2023-01-13T03:10:58;8.50;99.90
55642;DHT22;41509;53.108;6.100;2023-01-13T03:16:09;8.40;99.90
55642;DHT22;41509;53.108;6.100;2023-01-13T03:21:20;8.50;99.90
55642;DHT22;41509;53.108;6.100;2023-01-13T03:23:50;8.50;99.90
55642;DHT22;41509;53.108;6.100;2023-01-13T03:26:31;8.50;99.90
55642;DHT22;41509;53.108;6.100;2023-01-13T03:31:33;8.50;99.90
55642;DHT22;41509;53.108;6.100;2023-01-13T03:34:08;8.60;99.90
55642;DHT22;41509;53.108;6.100;2023-01-13T03:36:38;8.60;99.90
55642;DHT22;41509;53.108;6.100;2023-01-13T03:39:09;8.60;99.90
55642;DHT22;41509;53.108;6.100;2023-01-13T03:41:52;8.60;99.90
55642;DHT22;41509;53.108;6.100;2023-01-13T03:50:23;8.60;99.90
55642;DHT22;41509;53.108;6.100;2023-01-13T03:55:54;8.50;99.90
55642;DHT22;41509;53.108;6.100;2023-01-13T03:58:29;8.50;99.90
55642;DHT22;41509;53.108;6.100;2023-01-13T04:01:46;8.40;99.90
55642;DHT22;41509;53.108;6.100;2023-01-13T04:04:00;8.40;99.90
55642;DHT22;41509;53.108;6.100;2023-01-13T04:07:12;8.40;99.90
55642;DHT22;41509;53.108;6.100;2023-01-13T04:12:41;8.30;99.90
55642;DHT22;41509;53.108;6.100;2023-01-13T04:15:38;8.30;99.90
55642;DHT22;41509;53.108;6.100;2023-01-13T04:18:20;8.30;99.90
55642;DHT22;41509;53.108;6.100;2023-01-13T04:20:48;8.40;99.90
55642;DHT22;41509;53.108;6.100;2023-01-13T04:23:15;8.40;99.90
55642;DHT22;41509;53.108;6.100;2023-01-13T04:25:41;8.40;99.90
55642;DHT22;41509;53.108;6.100;2023-01-13T04:28:08;8.40;99.90
55642;DHT22;41509;53.108;6.100;2023-01-13T04:30:34;8.40;99.90
55642;DHT22;41509;53.108;6.100;2023-01-13T04:33:00;8.50;99.90
55642;DHT22;41509;53.108;6.100;2023-01-13T04:35:29;8.50;99.90
55642;DHT22;41509;53.108;6.100;2023-01-13T04:37:54;8.50;99.90
55642;DHT22;41509;53.108;6.100;2023-01-13T04:40:20;8.50;99.90
55642;DHT22;41509;53.108;6.100;2023-01-13T04:42:46;8.50;99.90
55642;DHT22;41509;53.108;6.100;2023-01-13T04:45:12;8.50;99.90
55642;DHT22;41509;53.108;6.100;2023-01-13T04:47:37;8.60;99.90
55642;DHT22;41509;53.108;6.100;2023-01-13T04:50:04;8.60;99.90
55642;DHT22;41509;53.108;6.100;2023-01-13T04:52:29;8.60;99.90
55642;DHT22;41509;53.108;6.100;2023-01-13T04:54:55;8.60;99.90
55642;DHT22;41509;53.108;6.100;2023-01-13T04:57:20;8.60;99.90
55642;DHT22;41509;53.108;6.100;2023-01-13T04:59:46;8.60;99.90
55642;DHT22;41509;53.108;6.100;2023-01-13T05:02:12;8.60;99.90
55642;DHT22;41509;53.108;6.100;2023-01-13T05:04:45;8.70;99.90
55642;DHT22;41509;53.108;6.100;2023-01-13T05:07:12;8.60;99.90
55642;DHT22;41509;53.108;6.100;2023-01-13T05:09:37;8.60;99.90
55642;DHT22;41509;53.108;6.100;2023-01-13T05:12:03;8.60;99.90
55642;DHT22;41509;53.108;6.100;2023-01-13T05:14:47;8.60;99.90
55642;DHT22;41509;53.108;6.100;2023-01-13T05:17:32;8.60;99.90
55642;DHT22;41509;53.108;6.100;2023-01-13T05:19:58;8.60;99.90
55642;DHT22;41509;53.108;6.100;2023-01-13T05:22:23;8.60;99.90
55642;DHT22;41509;53.108;6.100;2023-01-13T05:25:09;8.60;99.90
55642;DHT22;41509;53.108;6.100;2023-01-13T05:27:54;8.70;99.90
55642;DHT22;41509;53.108;6.100;2023-01-13T05:30:26;8.70;99.90
55642;DHT22;41509;53.108;6.100;2023-01-13T05:32:52;8.70;99.90
55642;DHT22;41509;53.108;6.100;2023-01-13T05:35:18;8.70;99.90
55642;DHT22;41509;53.108;6.100;2023-01-13T05:37:44;8.70;99.90
55642;DHT22;41509;53.108;6.100;2023-01-13T05:40:12;8.70;99.90
55642;DHT22;41509;53.108;6.100;2023-01-13T05:46:07;8.70;99.90
55642;DHT22;41509;53.108;6.100;2023-01-13T05:48:39;8.60;99.90
55642;DHT22;41509;53.108;6.100;2023-01-13T05:51:07;8.60;99.90
55642;DHT22;41509;53.108;6.100;2023-01-13T05:53:33;8.60;99.90
55642;DHT22;41509;53.108;6.100;2023-01-13T05:55:59;8.70;99.90
55642;DHT22;41509;53.108;6.100;2023-01-13T05:58:27;8.60;99.90
55642;DHT22;41509;53.108;6.100;2023-01-13T06:01:02;8.60;99.90
55642;DHT22;41509;53.108;6.100;2023-01-13T06:03:28;8.60;99.90
55642;DHT22;41509;53.108;6.100;2023-01-13T06:05:53;8.60;99.90
55642;DHT22;41509;53.108;6.100;2023-01-13T06:08:26;8.60;99.90
55642;DHT22;41509;53.108;6.100;2023-01-13T06:10:52;8.60;99.90
55642;DHT22;41509;53.108;6.100;2023-01-13T06:13:18;8.60;99.90
55642;DHT22;41509;53.108;6.100;2023-01-13T06:15:44;8.60;99.90
55642;DHT22;41509;53.108;6.100;2023-01-13T06:18:09;8.70;99.90
55642;DHT22;41509;53.108;6.100;2023-01-13T06:20:35;8.70;99.90
55642;DHT22;41509;53.108;6.100;2023-01-13T06:23:01;8.70;99.90
55642;DHT22;41509;53.108;6.100;2023-01-13T06:25:29;8.60;99.90
55642;DHT22;41509;53.108;6.100;2023-01-13T06:27:58;8.60;99.90
55642;DHT22;41509;53.108;6.100;2023-01-13T06:30:29;8.50;99.90
55642;DHT22;41509;53.108;6.100;2023-01-13T06:32:58;8.50;99.90
55642;DHT22;41509;53.108;6.100;2023-01-13T06:35:32;8.50;99.90
55642;DHT22;41509;53.108;6.100;2023-01-13T06:38:01;8.40;99.90
55642;DHT22;41509;53.108;6.100;2023-01-13T06:40:28;8.40;99.90
55642;DHT22;41509;53.108;6.100;2023-01-13T06:42:55;8.40;99.90
55642;DHT22;41509;53.108;6.100;2023-01-13T06:45:58;8.30;99.90
55642;DHT22;41509;53.108;6.100;2023-01-13T06:48:27;8.30;99.90
55642;DHT22;41509;53.108;6.100;2023-01-13T06:50:58;8.20;99.90
55642;DHT22;41509;53.108;6.100;2023-01-13T06:53:23;8.20;99.90
55642;DHT22;41509;53.108;6.100;2023-01-13T06:55:49;8.10;99.90
55642;DHT22;41509;53.108;6.100;2023-01-13T06:58:14;8.10;99.90
55642;DHT22;41509;53.108;6.100;2023-01-13T07:00:40;8.00;99.90
55642;DHT22;41509;53.108;6.100;2023-01-13T07:03:11;7.90;99.90
55642;DHT22;41509;53.108;6.100;2023-01-13T07:05:38;7.90;99.90
55642;DHT22;41509;53.108;6.100;2023-01-13T07:08:04;7.80;99.90
55642;DHT22;41509;53.108;6.100;2023-01-13T07:10:30;7.80;99.90
55642;DHT22;41509;53.108;6.100;2023-01-13T07:12:59;7.80;99.90
55642;DHT22;41509;53.108;6.100;2023-01-13T07:15:56;7.70;99.90
55642;DHT22;41509;53.108;6.100;2023-01-13T07:18:23;7.70;99.90
55642;DHT22;41509;53.108;6.100;2023-01-13T07:21:00;7.70;99.90
55642;DHT22;41509;53.108;6.100;2023-01-13T07:23:27;7.70;99.90
55642;DHT22;41509;53.108;6.100;2023-01-13T07:25:55;7.60;99.90
55642;DHT22;41509;53.108;6.100;2023-01-13T07:28:21;7.70;99.90
55642;DHT22;41509;53.108;6.100;2023-01-13T07:30:46;7.60;99.90
55642;DHT22;41509;53.108;6.100;2023-01-13T07:33:12;7.60;99.90
55642;DHT22;41509;53.108;6.100;2023-01-13T07:35:37;7.60;99.90
55642;DHT22;41509;53.108;6.100;2023-01-13T07:38:03;7.60;99.90
55642;DHT22;41509;53.108;6.100;2023-01-13T07:40:29;7.60;99.90
55642;DHT22;41509;53.108;6.100;2023-01-13T07:42:54;7.60;99.90
55642;DHT22;41509;53.108;6.100;2023-01-13T07:45:39;7.60;99.90
55642;DHT22;41509;53.108;6.100;2023-01-13T07:48:05;7.60;99.90
55642;DHT22;41509;53.108;6.100;2023-01-13T07:50:30;7.60;99.90
55642;DHT22;41509;53.108;6.100;2023-01-13T07:52:57;7.70;99.90
55642;DHT22;41509;53.108;6.100;2023-01-13T07:55:22;7.70;99.90
55642;DHT22;41509;53.108;6.100;2023-01-13T07:57:48;7.70;99.90
55642;DHT22;41509;53.108;6.100;2023-01-13T08:00:14;7.70;99.90
55642;DHT22;41509;53.108;6.100;2023-01-13T08:02:40;7.80;99.90
55642;DHT22;41509;53.108;6.100;2023-01-13T08:05:06;7.80;99.90
55642;DHT22;41509;53.108;6.100;2023-01-13T08:07:32;7.80;99.90
55642;DHT22;41509;53.108;6.100;2023-01-13T08:09:57;7.80;99.90
55642;DHT22;41509;53.108;6.100;2023-01-13T08:12:23;7.90;99.90
55642;DHT22;41509;53.108;6.100;2023-01-13T08:15:08;7.90;99.90
55642;DHT22;41509;53.108;6.100;2023-01-13T08:17:35;7.90;99.90
55642;DHT22;41509;53.108;6.100;2023-01-13T08:20:01;7.90;99.90
55642;DHT22;41509;53.108;6.100;2023-01-13T08:22:27;7.90;99.90
55642;DHT22;41509;53.108;6.100;2023-01-13T08:24:55;8.00;99.90
55642;DHT22;41509;53.108;6.100;2023-01-13T08:27:21;8.00;99.90
55642;DHT22;41509;53.108;6.100;2023-01-13T08:29:46;8.00;99.90
55642;DHT22;41509;53.108;6.100;2023-01-13T08:32:12;8.10;99.90
55642;DHT22;41509;53.108;6.100;2023-01-13T08:34:38;8.10;99.90
55642;DHT22;41509;53.108;6.100;2023-01-13T08:37:03;8.10;99.90
55642;DHT22;41509;53.108;6.100;2023-01-13T08:39:29;8.20;99.90
55642;DHT22;41509;53.108;6.100;2023-01-13T08:41:55;8.20;99.90
55642;DHT22;41509;53.108;6.100;2023-01-13T08:44:22;8.30;99.90
55642;DHT22;41509;53.108;6.100;2023-01-13T08:46:48;8.30;99.90
55642;DHT22;41509;53.108;6.100;2023-01-13T08:49:15;8.30;99.90
55642;DHT22;41509;53.108;6.100;2023-01-13T08:51:41;8.30;99.90
55642;DHT22;41509;53.108;6.100;2023-01-13T08:54:07;8.30;99.90
55642;DHT22;41509;53.108;6.100;2023-01-13T08:56:33;8.30;99.90
55642;DHT22;41509;53.108;6.100;2023-01-13T08:59:00;8.20;99.90
55642;DHT22;41509;53.108;6.100;2023-01-13T09:01:26;8.10;99.90
55642;DHT22;41509;53.108;6.100;2023-01-13T09:03:52;8.10;99.90
55642;DHT22;41509;53.108;6.100;2023-01-13T09:06:18;8.00;99.90
55642;DHT22;41509;53.108;6.100;2023-01-13T09:08:44;7.90;99.90
55642;DHT22;41509;53.108;6.100;2023-01-13T09:11:18;7.90;99.90
55642;DHT22;41509;53.108;6.100;2023-01-13T09:14:03;7.90;99.90
55642;DHT22;41509;53.108;6.100;2023-01-13T09:16:28;7.80;99.90
55642;DHT22;41509;53.108;6.100;2023-01-13T09:18:54;7.80;99.90
55642;DHT22;41509;53.108;6.100;2023-01-13T09:21:20;7.80;99.90
55642;DHT22;41509;53.108;6.100;2023-01-13T09:23:46;7.80;99.90
55642;DHT22;41509;53.108;6.100;2023-01-13T09:26:15;7.80;99.90
55642;DHT22;41509;53.108;6.100;2023-01-13T09:28:42;7.80;99.90
55642;DHT22;41509;53.108;6.100;2023-01-13T09:31:07;7.80;99.90
55642;DHT22;41509;53.108;6.100;2023-01-13T09:33:33;7.80;99.90
55642;DHT22;41509;53.108;6.100;2023-01-13T09:36:18;7.80;99.90
55642;DHT22;41509;53.108;6.100;2023-01-13T09:38:43;7.80;99.90
55642;DHT22;41509;53.108;6.100;2023-01-13T09:41:30;7.80;99.90
55642;DHT22;41509;53.108;6.100;2023-01-13T09:44:24;7.70;99.90
55642;DHT22;41509;53.108;6.100;2023-01-13T09:46:56;7.80;99.90
55642;DHT22;41509;53.108;6.100;2023-01-13T09:52:15;7.80;99.90
55642;DHT22;41509;53.108;6.100;2023-01-13T09:55:05;7.80;99.90
55642;DHT22;41509;53.108;6.100;2023-01-13T09:57:35;7.80;99.90
55642;DHT22;41509;53.108;6.100;2023-01-13T10:00:08;7.80;99.90
55642;DHT22;41509;53.108;6.100;2023-01-13T10:03:16;7.80;99.90
55642;DHT22;41509;53.108;6.100;2023-01-13T10:05:43;7.80;99.90
55642;DHT22;41509;53.108;6.100;2023-01-13T10:08:10;7.80;99.90
55642;DHT22;41509;53.108;6.100;2023-01-13T10:10:43;7.80;99.90
55642;DHT22;41509;53.108;6.100;2023-01-13T10:13:23;7.80;99.90
55642;DHT22;41509;53.108;6.100;2023-01-13T10:16:01;7.80;99.90
55642;DHT22;41509;53.108;6.100;2023-01-13T10:18:32;7.90;99.90
55642;DHT22;41509;53.108;6.100;2023-01-13T10:21:25;7.90;99.90
55642;DHT22;41509;53.108;6.100;2023-01-13T10:24:04;7.90;99.90
55642;DHT22;41509;53.108;6.100;2023-01-13T10:26:50;7.90;99.90
55642;DHT22;41509;53.108;6.100;2023-01-13T10:29:27;8.00;99.90
55642;DHT22;41509;53.108;6.100;2023-01-13T10:31:55;8.00;99.90
55642;DHT22;41509;53.108;6.100;2023-01-13T10:34:21;8.00;99.90
55642;DHT22;41509;53.108;6.100;2023-01-13T10:37:01;8.00;99.90
55642;DHT22;41509;53.108;6.100;2023-01-13T10:39:28;8.00;99.90
55642;DHT22;41509;53.108;6.100;2023-01-13T10:42:04;8.00;99.90
55642;DHT22;41509;53.108;6.100;2023-01-13T10:44:30;8.00;99.90
55642;DHT22;41509;53.108;6.100;2023-01-13T10:46:58;8.10;99.90
55642;DHT22;41509;53.108;6.100;2023-01-13T10:49:31;8.10;99.90
55642;DHT22;41509;53.108;6.100;2023-01-13T10:51:57;8.10;99.90
55642;DHT22;41509;53.108;6.100;2023-01-13T10:54:24;8.10;99.90
55642;DHT22;41509;53.108;6.100;2023-01-13T10:57:16;8.20;99.90
55642;DHT22;41509;53.108;6.100;2023-01-13T10:59:43;8.20;99.90
55642;DHT22;41509;53.108;6.100;2023-01-13T11:13:07;8.20;99.90
55642;DHT22;41509;53.108;6.100;2023-01-13T11:18:25;8.30;99.90
55642;DHT22;41509;53.108;6.100;2023-01-13T11:20:53;8.30;99.90
55642;DHT22;41509;53.108;6.100;2023-01-13T11:23:30;8.40;99.90
55642;DHT22;41509;53.108;6.100;2023-01-13T11:26:02;8.40;99.90
55642;DHT22;41509;53.108;6.100;2023-01-13T11:28:38;8.50;99.90
55642;DHT22;41509;53.108;6.100;2023-01-13T11:31:35;8.50;99.90
55642;DHT22;41509;53.108;6.100;2023-01-13T11:36:41;8.60;99.90
55642;DHT22;41509;53.108;6.100;2023-01-13T11:42:47;8.60;99.90
55642;DHT22;41509;53.108;6.100;2023-01-13T11:45:30;8.60;99.90
55642;DHT22;41509;53.108;6.100;2023-01-13T11:47:59;8.60;99.90
55642;DHT22;41509;53.108;6.100;2023-01-13T11:50:46;8.60;99.90
55642;DHT22;41509;53.108;6.100;2023-01-13T11:56:25;8.60;99.90
55642;DHT22;41509;53.108;6.100;2023-01-13T12:02:12;8.70;99.90
55642;DHT22;41509;53.108;6.100;2023-01-13T12:13:24;8.90;99.90
55642;DHT22;41509;53.108;6.100;2023-01-13T12:21:38;8.90;99.90
55642;DHT22;41509;53.108;6.100;2023-01-13T12:26:48;9.00;99.90
55642;DHT22;41509;53.108;6.100;2023-01-13T12:29:30;8.90;99.90
55642;DHT22;41509;53.108;6.100;2023-01-13T12:31:59;8.90;99.90
55642;DHT22;41509;53.108;6.100;2023-01-13T12:34:51;9.00;99.90
55642;DHT22;41509;53.108;6.100;2023-01-13T12:37:38;9.00;99.90
55642;DHT22;41509;53.108;6.100;2023-01-13T12:42:57;9.00;99.90
55642;DHT22;41509;53.108;6.100;2023-01-13T12:45:46;9.00;99.90
55642;DHT22;41509;53.108;6.100;2023-01-13T12:54:59;9.10;99.90
55642;DHT22;41509;53.108;6.100;2023-01-13T12:57:20;9.00;99.90
55642;DHT22;41509;53.108;6.100;2023-01-13T13:02:35;9.00;99.90
55642;DHT22;41509;53.108;6.100;2023-01-13T13:08:23;9.00;99.90
55642;DHT22;41509;53.108;6.100;2023-01-13T13:11:00;9.10;99.90
55642;DHT22;41509;53.108;6.100;2023-01-13T13:13:45;9.00;99.90
55642;DHT22;41509;53.108;6.100;2023-01-13T13:24:39;9.10;99.90
55642;DHT22;41509;53.108;6.100;2023-01-13T13:38:53;9.10;99.90
55642;DHT22;41509;53.108;6.100;2023-01-13T13:41:42;9.00;99.90
55642;DHT22;41509;53.108;6.100;2023-01-13T13:44:35;9.00;99.90
55642;DHT22;41509;53.108;6.100;2023-01-13T13:47:21;9.10;99.90
55642;DHT22;41509;53.108;6.100;2023-01-13T13:49:49;9.10;99.90
55642;DHT22;41509;53.108;6.100;2023-01-13T13:55:16;9.10;99.90
55642;DHT22;41509;53.108;6.100;2023-01-13T13:57:46;9.00;99.90
55642;DHT22;41509;53.108;6.100;2023-01-13T14:02:55;9.10;99.90
55642;DHT22;41509;53.108;6.100;2023-01-13T14:05:28;9.00;99.90
55642;DHT22;41509;53.108;6.100;2023-01-13T14:08:00;9.00;99.90
55642;DHT22;41509;53.108;6.100;2023-01-13T14:10:30;9.00;99.90
55642;DHT22;41509;53.108;6.100;2023-01-13T14:12:57;9.00;99.90
55642;DHT22;41509;53.108;6.100;2023-01-13T14:15:28;9.00;99.90
55642;DHT22;41509;53.108;6.100;2023-01-13T14:17:56;9.00;99.90
55642;DHT22;41509;53.108;6.100;2023-01-13T14:20:22;8.90;99.90
55642;DHT22;41509;53.108;6.100;2023-01-13T14:22:51;9.00;99.90
55642;DHT22;41509;53.108;6.100;2023-01-13T14:25:35;9.00;99.90
55642;DHT22;41509;53.108;6.100;2023-01-13T14:28:19;9.00;99.90
55642;DHT22;41509;53.108;6.100;2023-01-13T14:30:46;9.00;99.90
55642;DHT22;41509;53.108;6.100;2023-01-13T14:33:17;9.00;99.90
55642;DHT22;41509;53.108;6.100;2023-01-13T14:36:15;9.00;99.90
55642;DHT22;41509;53.108;6.100;2023-01-13T14:38:42;9.00;99.90
55642;DHT22;41509;53.108;6.100;2023-01-13T14:43:44;9.00;99.90
55642;DHT22;41509;53.108;6.100;2023-01-13T14:46:10;9.00;99.90
55642;DHT22;41509;53.108;6.100;2023-01-13T14:48:37;9.00;99.90
55642;DHT22;41509;53.108;6.100;2023-01-13T14:51:12;9.00;99.90
55642;DHT22;41509;53.108;6.100;2023-01-13T14:53:45;9.00;99.90
55642;DHT22;41509;53.108;6.100;2023-01-13T14:56:37;9.00;99.90
55642;DHT22;41509;53.108;6.100;2023-01-13T15:01:57;8.80;99.90
55642;DHT22;41509;53.108;6.100;2023-01-13T15:04:31;8.90;99.90
55642;DHT22;41509;53.108;6.100;2023-01-13T15:06:59;8.80;99.90
55642;DHT22;41509;53.108;6.100;2023-01-13T15:09:28;8.80;99.90
55642;DHT22;41509;53.108;6.100;2023-01-13T15:11:55;8.80;99.90
55642;DHT22;41509;53.108;6.100;2023-01-13T15:14:28;8.70;99.90
55642;DHT22;41509;53.108;6.100;2023-01-13T15:16:56;8.80;99.90
55642;DHT22;41509;53.108;6.100;2023-01-13T15:19:22;8.70;99.90
55642;DHT22;41509;53.108;6.100;2023-01-13T15:21:48;8.70;99.90
55642;DHT22;41509;53.108;6.100;2023-01-13T15:24:13;8.70;99.90
55642;DHT22;41509;53.108;6.100;2023-01-13T15:26:39;8.70;99.90
55642;DHT22;41509;53.108;6.100;2023-01-13T15:29:10;8.70;99.90
55642;DHT22;41509;53.108;6.100;2023-01-13T15:31:37;8.70;99.90
55642;DHT22;41509;53.108;6.100;2023-01-13T15:34:03;8.80;99.90
55642;DHT22;41509;53.108;6.100;2023-01-13T15:36:30;8.70;99.90
55642;DHT22;41509;53.108;6.100;2023-01-13T15:38:57;8.80;99.90
55642;DHT22;41509;53.108;6.100;2023-01-13T15:41:24;8.80;99.90
55642;DHT22;41509;53.108;6.100;2023-01-13T15:44:12;8.80;99.90
55642;DHT22;41509;53.108;6.100;2023-01-13T15:47:00;8.80;99.90
55642;DHT22;41509;53.108;6.100;2023-01-13T15:49:29;8.80;99.90
55642;DHT22;41509;53.108;6.100;2023-01-13T15:52:00;8.80;99.90
55642;DHT22;41509;53.108;6.100;2023-01-13T15:54:27;8.80;99.90
55642;DHT22;41509;53.108;6.100;2023-01-13T15:56:53;8.80;99.90
55642;DHT22;41509;53.108;6.100;2023-01-13T15:59:22;8.80;99.90
55642;DHT22;41509;53.108;6.100;2023-01-13T16:01:48;8.80;99.90
55642;DHT22;41509;53.108;6.100;2023-01-13T16:04:14;8.80;99.90
55642;DHT22;41509;53.108;6.100;2023-01-13T16:06:40;8.80;99.90
55642;DHT22;41509;53.108;6.100;2023-01-13T16:09:05;8.70;99.90
55642;DHT22;41509;53.108;6.100;2023-01-13T16:11:31;8.70;99.90
55642;DHT22;41509;53.108;6.100;2023-01-13T16:13:57;8.70;99.90
55642;DHT22;41509;53.108;6.100;2023-01-13T16:16:25;8.70;99.90
55642;DHT22;41509;53.108;6.100;2023-01-13T16:18:51;8.70;99.90
55642;DHT22;41509;53.108;6.100;2023-01-13T16:21:17;8.70;99.90
55642;DHT22;41509;53.108;6.100;2023-01-13T16:23:45;8.70;99.90
55642;DHT22;41509;53.108;6.100;2023-01-13T16:26:23;8.70;99.90
55642;DHT22;41509;53.108;6.100;2023-01-13T16:28:50;8.70;99.90
55642;DHT22;41509;53.108;6.100;2023-01-13T16:31:29;8.80;99.90
55642;DHT22;41509;53.108;6.100;2023-01-13T16:34:00;8.70;99.90
55642;DHT22;41509;53.108;6.100;2023-01-13T16:36:27;8.70;99.90
55642;DHT22;41509;53.108;6.100;2023-01-13T16:38:53;8.70;99.90
55642;DHT22;41509;53.108;6.100;2023-01-13T16:41:20;8.70;99.90
55642;DHT22;41509;53.108;6.100;2023-01-13T16:43:47;8.70;99.90
55642;DHT22;41509;53.108;6.100;2023-01-13T16:46:18;8.80;99.90
55642;DHT22;41509;53.108;6.100;2023-01-13T16:48:45;8.80;99.90
55642;DHT22;41509;53.108;6.100;2023-01-13T16:51:10;8.80;99.90
55642;DHT22;41509;53.108;6.100;2023-01-13T16:53:36;8.80;99.90
55642;DHT22;41509;53.108;6.100;2023-01-13T16:56:02;8.90;99.90
55642;DHT22;41509;53.108;6.100;2023-01-13T16:58:27;8.90;99.90
55642;DHT22;41509;53.108;6.100;2023-01-13T17:00:53;8.90;99.90
55642;DHT22;41509;53.108;6.100;2023-01-13T17:03:19;8.80;99.90
55642;DHT22;41509;53.108;6.100;2023-01-13T17:05:45;8.80;99.90
55642;DHT22;41509;53.108;6.100;2023-01-13T17:08:16;8.70;99.90
55642;DHT22;41509;53.108;6.100;2023-01-13T17:10:49;8.70;99.90
55642;DHT22;41509;53.108;6.100;2023-01-13T17:13:15;8.80;99.90
55642;DHT22;41509;53.108;6.100;2023-01-13T17:15:40;8.70;99.90
55642;DHT22;41509;53.108;6.100;2023-01-13T17:18:06;8.80;99.90
55642;DHT22;41509;53.108;6.100;2023-01-13T17:20:34;8.70;99.90
55642;DHT22;41509;53.108;6.100;2023-01-13T17:23:00;8.70;99.90
55642;DHT22;41509;53.108;6.100;2023-01-13T17:25:26;8.70;99.90
55642;DHT22;41509;53.108;6.100;2023-01-13T17:27:51;8.70;99.90
55642;DHT22;41509;53.108;6.100;2023-01-13T17:30:17;8.70;99.90
55642;DHT22;41509;53.108;6.100;2023-01-13T17:32:43;8.70;99.90
55642;DHT22;41509;53.108;6.100;2023-01-13T17:35:09;8.70;99.90
55642;DHT22;41509;53.108;6.100;2023-01-13T17:37:34;8.70;99.90
55642;DHT22;41509;53.108;6.100;2023-01-13T17:40:00;8.70;99.90
55642;DHT22;41509;53.108;6.100;2023-01-13T17:42:29;8.70;99.90
55642;DHT22;41509;53.108;6.100;2023-01-13T17:44:55;8.70;99.90
55642;DHT22;41509;53.108;6.100;2023-01-13T17:47:21;8.80;99.90
55642;DHT22;41509;53.108;6.100;2023-01-13T17:49:46;8.80;99.90
55642;DHT22;41509;53.108;6.100;2023-01-13T17:52:12;8.80;99.90
55642;DHT22;41509;53.108;6.100;2023-01-13T17:54:38;8.70;99.90
55642;DHT22;41509;53.108;6.100;2023-01-13T17:57:04;8.80;99.90
55642;DHT22;41509;53.108;6.100;2023-01-13T17:59:30;8.80;99.90
55642;DHT22;41509;53.108;6.100;2023-01-13T18:01:56;8.80;99.90
55642;DHT22;41509;53.108;6.100;2023-01-13T18:04:24;8.80;99.90
55642;DHT22;41509;53.108;6.100;2023-01-13T18:06:55;8.80;99.90
55642;DHT22;41509;53.108;6.100;2023-01-13T18:09:24;8.80;99.90
55642;DHT22;41509;53.108;6.100;2023-01-13T18:11:50;8.90;99.90
55642;DHT22;41509;53.108;6.100;2023-01-13T18:14:16;8.90;99.90